sensor_id;sensor_type;location;lat;lon;timestamp;P1;durP1;ratioP1;P2;durP2;ratioP2
6141;SDS011;71289;51.552;6.210;2024-01-30T00:01:53;12.63;;;7.30;;
6141;SDS011;71289;51.552;6.210;2024-01-30T00:04:18;10.57;;;6.80;;
6141;SDS011;71289;51.552;6.210;2024-01-30T00:06:44;9.57;;;6.40;;
6141;SDS011;71289;51.552;6.210;2024-01-30T00:09:10;11.80;;;6.93;;
6141;SDS011;71289;51.552;6.210;2024-01-30T00:11:36;8.03;;;5.60;;
6141;SDS011;71289;51.552;6.210;2024-01-30T00:14:02;13.60;;;7.17;;
6141;SDS011;71289;51.552;6.210;2024-01-30T00:16:28;11.97;;;5.97;;
6141;SDS011;71289;51.552;6.210;2024-01-30T00:18:54;10.63;;;6.90;;
6141;SDS011;71289;51.552;6.210;2024-01-30T00:21:20;8.27;;;5.93;;
6141;SDS011;71289;51.552;6.210;2024-01-30T00:23:46;9.77;;;7.23;;
6141;SDS011;71289;51.552;6.210;2024-01-30T00:26:12;15.23;;;8.37;;
6141;SDS011;71289;51.552;6.210;2024-01-30T00:28:38;11.33;;;7.70;;
6141;SDS011;71289;51.552;6.210;2024-01-30T00:31:03;9.57;;;6.67;;
6141;SDS011;71289;51.552;6.210;2024-01-30T00:33:29;11.90;;;6.40;;
6141;SDS011;71289;51.552;6.210;2024-01-30T00:35:55;12.40;;;6.40;;
6141;SDS011;71289;51.552;6.210;2024-01-30T00:38:21;11.30;;;7.50;;
6141;SDS011;71289;51.552;6.210;2024-01-30T00:40:47;8.93;;;6.40;;
6141;SDS011;71289;51.552;6.210;2024-01-30T00:43:13;11.17;;;7.60;;
6141;SDS011;71289;51.552;6.210;2024-01-30T00:45:38;7.87;;;5.97;;
6141;SDS011;71289;51.552;6.210;2024-01-30T00:48:04;14.03;;;7.13;;
6141;SDS011;71289;51.552;6.210;2024-01-30T00:50:30;18.73;;;7.70;;
6141;SDS011;71289;51.552;6.210;2024-01-30T00:52:55;9.43;;;6.30;;
6141;SDS011;71289;51.552;6.210;2024-01-30T00:55:21;11.53;;;7.30;;
6141;SDS011;71289;51.552;6.210;2024-01-30T00:57:46;9.53;;;6.33;;
6141;SDS011;71289;51.552;6.210;2024-01-30T01:00:12;10.43;;;6.63;;
6141;SDS011;71289;51.552;6.210;2024-01-30T01:02:40;9.83;;;6.83;;
6141;SDS011;71289;51.552;6.210;2024-01-30T01:05:06;10.67;;;7.00;;
6141;SDS011;71289;51.552;6.210;2024-01-30T01:07:32;10.10;;;6.43;;
6141;SDS011;71289;51.552;6.210;2024-01-30T01:09:57;10.13;;;5.80;;
6141;SDS011;71289;51.552;6.210;2024-01-30T01:12:23;12.63;;;7.80;;
6141;SDS011;71289;51.552;6.210;2024-01-30T01:14:48;12.07;;;7.43;;
6141;SDS011;71289;51.552;6.210;2024-01-30T01:17:14;13.30;;;7.03;;
6141;SDS011;71289;51.552;6.210;2024-01-30T01:19:39;11.83;;;7.50;;
6141;SDS011;71289;51.552;6.210;2024-01-30T01:22:05;10.43;;;6.70;;
6141;SDS011;71289;51.552;6.210;2024-01-30T01:24:31;11.37;;;5.87;;
6141;SDS011;71289;51.552;6.210;2024-01-30T01:26:58;10.73;;;6.60;;
6141;SDS011;71289;51.552;6.210;2024-01-30T01:29:23;11.00;;;6.70;;
6141;SDS011;71289;51.552;6.210;2024-01-30T01:31:53;10.80;;;6.50;;
6141;SDS011;71289;51.552;6.210;2024-01-30T01:34:22;15.70;;;7.43;;
6141;SDS011;71289;51.552;6.210;2024-01-30T01:36:49;11.07;;;7.30;;
6141;SDS011;71289;51.552;6.210;2024-01-30T01:39:14;6.80;;;4.80;;
6141;SDS011;71289;51.552;6.210;2024-01-30T01:41:40;14.83;;;7.30;;
6141;SDS011;71289;51.552;6.210;2024-01-30T01:44:06;12.40;;;7.27;;
6141;SDS011;71289;51.552;6.210;2024-01-30T01:46:32;11.13;;;7.20;;
6141;SDS011;71289;51.552;6.210;2024-01-30T01:48:59;13.87;;;7.50;;
6141;SDS011;71289;51.552;6.210;2024-01-30T01:51:27;15.13;;;5.97;;
6141;SDS011;71289;51.552;6.210;2024-01-30T01:53:54;10.83;;;7.77;;
6141;SDS011;71289;51.552;6.210;2024-01-30T01:56:22;10.50;;;7.07;;
6141;SDS011;71289;51.552;6.210;2024-01-30T01:58:48;9.80;;;5.93;;
6141;SDS011;71289;51.552;6.210;2024-01-30T02:01:16;11.03;;;6.67;;
6141;SDS011;71289;51.552;6.210;2024-01-30T02:03:45;8.23;;;6.23;;
6141;SDS011;71289;51.552;6.210;2024-01-30T02:06:11;10.77;;;7.20;;
6141;SDS011;71289;51.552;6.210;2024-01-30T02:08:38;12.10;;;6.07;;
6141;SDS011;71289;51.552;6.210;2024-01-30T02:11:04;8.77;;;6.27;;
6141;SDS011;71289;51.552;6.210;2024-01-30T02:13:30;11.37;;;7.07;;
6141;SDS011;71289;51.552;6.210;2024-01-30T02:15:55;15.07;;;7.47;;
6141;SDS011;71289;51.552;6.210;2024-01-30T02:18:22;10.00;;;6.53;;
6141;SDS011;71289;51.552;6.210;2024-01-30T02:20:47;13.17;;;6.53;;
6141;SDS011;71289;51.552;6.210;2024-01-30T02:23:13;11.80;;;6.07;;
6141;SDS011;71289;51.552;6.210;2024-01-30T02:25:40;10.70;;;6.57;;
6141;SDS011;71289;51.552;6.210;2024-01-30T02:28:10;11.43;;;7.40;;
6141;SDS011;71289;51.552;6.210;2024-01-30T02:30:37;13.57;;;7.70;;
6141;SDS011;71289;51.552;6.210;2024-01-30T02:33:02;9.50;;;7.40;;
6141;SDS011;71289;51.552;6.210;2024-01-30T02:35:28;15.80;;;6.70;;
6141;SDS011;71289;51.552;6.210;2024-01-30T02:37:53;7.60;;;5.87;;
6141;SDS011;71289;51.552;6.210;2024-01-30T02:40:19;12.33;;;7.07;;
6141;SDS011;71289;51.552;6.210;2024-01-30T02:42:44;17.43;;;7.10;;
6141;SDS011;71289;51.552;6.210;2024-01-30T02:45:10;14.17;;;7.67;;
6141;SDS011;71289;51.552;6.210;2024-01-30T02:47:36;8.67;;;6.20;;
6141;SDS011;71289;51.552;6.210;2024-01-30T02:50:02;12.90;;;7.10;;
6141;SDS011;71289;51.552;6.210;2024-01-30T02:52:27;14.70;;;7.60;;
6141;SDS011;71289;51.552;6.210;2024-01-30T02:54:53;13.93;;;8.03;;
6141;SDS011;71289;51.552;6.210;2024-01-30T02:57:18;10.63;;;7.27;;
6141;SDS011;71289;51.552;6.210;2024-01-30T02:59:44;12.80;;;7.00;;
6141;SDS011;71289;51.552;6.210;2024-01-30T03:02:09;10.73;;;7.17;;
6141;SDS011;71289;51.552;6.210;2024-01-30T03:04:35;12.97;;;7.07;;
6141;SDS011;71289;51.552;6.210;2024-01-30T03:07:00;10.40;;;6.50;;
6141;SDS011;71289;51.552;6.210;2024-01-30T03:09:26;9.97;;;8.40;;
6141;SDS011;71289;51.552;6.210;2024-01-30T03:11:51;9.10;;;6.60;;
6141;SDS011;71289;51.552;6.210;2024-01-30T03:14:17;10.60;;;8.63;;
6141;SDS011;71289;51.552;6.210;2024-01-30T03:16:43;11.87;;;7.80;;
6141;SDS011;71289;51.552;6.210;2024-01-30T03:19:08;8.90;;;6.77;;
6141;SDS011;71289;51.552;6.210;2024-01-30T03:21:34;11.63;;;7.13;;
6141;SDS011;71289;51.552;6.210;2024-01-30T03:23:59;13.77;;;7.30;;
6141;SDS011;71289;51.552;6.210;2024-01-30T03:26:25;15.63;;;8.30;;
6141;SDS011;71289;51.552;6.210;2024-01-30T03:28:51;13.17;;;8.07;;
6141;SDS011;71289;51.552;6.210;2024-01-30T03:31:16;14.07;;;6.93;;
6141;SDS011;71289;51.552;6.210;2024-01-30T03:33:42;11.37;;;7.57;;
6141;SDS011;71289;51.552;6.210;2024-01-30T03:36:08;13.73;;;8.40;;
6141;SDS011;71289;51.552;6.210;2024-01-30T03:38:34;12.97;;;7.20;;
6141;SDS011;71289;51.552;6.210;2024-01-30T03:41:00;11.17;;;7.17;;
6141;SDS011;71289;51.552;6.210;2024-01-30T03:43:26;9.30;;;6.47;;
6141;SDS011;71289;51.552;6.210;2024-01-30T03:45:52;16.33;;;8.57;;
6141;SDS011;71289;51.552;6.210;2024-01-30T03:48:17;18.63;;;7.63;;
6141;SDS011;71289;51.552;6.210;2024-01-30T03:50:43;14.17;;;7.30;;
6141;SDS011;71289;51.552;6.210;2024-01-30T03:53:09;11.80;;;6.63;;
6141;SDS011;71289;51.552;6.210;2024-01-30T03:55:34;10.77;;;7.07;;
6141;SDS011;71289;51.552;6.210;2024-01-30T03:58:00;17.60;;;7.83;;
6141;SDS011;71289;51.552;6.210;2024-01-30T04:00:25;10.17;;;6.90;;
6141;SDS011;71289;51.552;6.210;2024-01-30T04:02:51;15.70;;;8.03;;
6141;SDS011;71289;51.552;6.210;2024-01-30T04:05:16;16.50;;;8.50;;
6141;SDS011;71289;51.552;6.210;2024-01-30T04:07:42;11.50;;;7.70;;
6141;SDS011;71289;51.552;6.210;2024-01-30T04:10:08;20.03;;;8.50;;
6141;SDS011;71289;51.552;6.210;2024-01-30T04:12:36;14.67;;;8.67;;
6141;SDS011;71289;51.552;6.210;2024-01-30T04:15:02;10.10;;;6.93;;
6141;SDS011;71289;51.552;6.210;2024-01-30T04:17:28;13.33;;;6.97;;
6141;SDS011;71289;51.552;6.210;2024-01-30T04:19:54;11.10;;;7.90;;
6141;SDS011;71289;51.552;6.210;2024-01-30T04:22:20;18.27;;;7.70;;
6141;SDS011;71289;51.552;6.210;2024-01-30T04:24:45;11.30;;;6.73;;
6141;SDS011;71289;51.552;6.210;2024-01-30T04:27:11;14.17;;;7.13;;
6141;SDS011;71289;51.552;6.210;2024-01-30T04:29:37;8.77;;;6.57;;
6141;SDS011;71289;51.552;6.210;2024-01-30T04:32:02;12.43;;;6.90;;
6141;SDS011;71289;51.552;6.210;2024-01-30T04:34:28;9.93;;;5.63;;
6141;SDS011;71289;51.552;6.210;2024-01-30T04:36:54;11.23;;;6.37;;
6141;SDS011;71289;51.552;6.210;2024-01-30T04:39:19;13.23;;;7.90;;
6141;SDS011;71289;51.552;6.210;2024-01-30T04:41:45;9.03;;;6.97;;
6141;SDS011;71289;51.552;6.210;2024-01-30T04:44:10;8.33;;;6.53;;
6141;SDS011;71289;51.552;6.210;2024-01-30T04:46:36;11.10;;;7.70;;
6141;SDS011;71289;51.552;6.210;2024-01-30T04:49:01;12.47;;;6.93;;
6141;SDS011;71289;51.552;6.210;2024-01-30T04:51:28;11.97;;;8.10;;
6141;SDS011;71289;51.552;6.210;2024-01-30T04:53:54;11.30;;;7.53;;
6141;SDS011;71289;51.552;6.210;2024-01-30T04:56:19;17.83;;;8.03;;
6141;SDS011;71289;51.552;6.210;2024-01-30T04:58:45;8.40;;;5.90;;
6141;SDS011;71289;51.552;6.210;2024-01-30T05:01:14;12.90;;;7.30;;
6141;SDS011;71289;51.552;6.210;2024-01-30T05:03:41;12.83;;;8.03;;
6141;SDS011;71289;51.552;6.210;2024-01-30T05:06:06;16.53;;;7.43;;
6141;SDS011;71289;51.552;6.210;2024-01-30T05:08:32;13.20;;;6.67;;
6141;SDS011;71289;51.552;6.210;2024-01-30T05:11:00;10.33;;;6.00;;
6141;SDS011;71289;51.552;6.210;2024-01-30T05:13:25;12.23;;;7.17;;
6141;SDS011;71289;51.552;6.210;2024-01-30T05:15:51;10.47;;;6.00;;
6141;SDS011;71289;51.552;6.210;2024-01-30T05:18:16;12.50;;;6.87;;
6141;SDS011;71289;51.552;6.210;2024-01-30T05:20:42;15.40;;;7.27;;
6141;SDS011;71289;51.552;6.210;2024-01-30T05:23:07;13.00;;;6.90;;
6141;SDS011;71289;51.552;6.210;2024-01-30T05:25:33;10.60;;;6.67;;
6141;SDS011;71289;51.552;6.210;2024-01-30T05:27:58;12.33;;;6.80;;
6141;SDS011;71289;51.552;6.210;2024-01-30T05:30:24;9.50;;;6.27;;
6141;SDS011;71289;51.552;6.210;2024-01-30T05:32:49;9.83;;;6.87;;
6141;SDS011;71289;51.552;6.210;2024-01-30T05:35:15;9.77;;;5.30;;
6141;SDS011;71289;51.552;6.210;2024-01-30T05:37:42;7.70;;;6.20;;
6141;SDS011;71289;51.552;6.210;2024-01-30T05:40:07;15.43;;;7.17;;
6141;SDS011;71289;51.552;6.210;2024-01-30T05:42:33;10.57;;;6.50;;
6141;SDS011;71289;51.552;6.210;2024-01-30T05:44:58;12.03;;;6.97;;
6141;SDS011;71289;51.552;6.210;2024-01-30T05:47:24;8.80;;;5.83;;
6141;SDS011;71289;51.552;6.210;2024-01-30T05:49:50;9.30;;;5.47;;
6141;SDS011;71289;51.552;6.210;2024-01-30T05:52:15;16.90;;;6.57;;
6141;SDS011;71289;51.552;6.210;2024-01-30T05:54:41;12.53;;;7.30;;
6141;SDS011;71289;51.552;6.210;2024-01-30T05:57:06;11.27;;;6.00;;
6141;SDS011;71289;51.552;6.210;2024-01-30T05:59:32;12.57;;;7.47;;
6141;SDS011;71289;51.552;6.210;2024-01-30T06:01:57;9.90;;;6.33;;
6141;SDS011;71289;51.552;6.210;2024-01-30T06:04:23;10.30;;;6.73;;
6141;SDS011;71289;51.552;6.210;2024-01-30T06:06:48;11.47;;;7.60;;
6141;SDS011;71289;51.552;6.210;2024-01-30T06:09:14;11.40;;;6.70;;
6141;SDS011;71289;51.552;6.210;2024-01-30T06:11:40;11.97;;;6.43;;
6141;SDS011;71289;51.552;6.210;2024-01-30T06:14:05;15.03;;;7.60;;
6141;SDS011;71289;51.552;6.210;2024-01-30T06:16:31;9.47;;;6.30;;
6141;SDS011;71289;51.552;6.210;2024-01-30T06:18:56;11.50;;;7.13;;
6141;SDS011;71289;51.552;6.210;2024-01-30T06:21:22;9.10;;;6.87;;
6141;SDS011;71289;51.552;6.210;2024-01-30T06:23:48;12.43;;;7.37;;
6141;SDS011;71289;51.552;6.210;2024-01-30T06:26:13;11.63;;;6.37;;
6141;SDS011;71289;51.552;6.210;2024-01-30T06:28:39;12.93;;;7.17;;
6141;SDS011;71289;51.552;6.210;2024-01-30T06:31:05;14.47;;;8.40;;
6141;SDS011;71289;51.552;6.210;2024-01-30T06:33:30;13.70;;;7.13;;
6141;SDS011;71289;51.552;6.210;2024-01-30T06:35:55;12.80;;;5.87;;
6141;SDS011;71289;51.552;6.210;2024-01-30T06:38:21;9.33;;;6.60;;
6141;SDS011;71289;51.552;6.210;2024-01-30T06:40:46;8.97;;;6.43;;
6141;SDS011;71289;51.552;6.210;2024-01-30T06:43:12;10.20;;;6.67;;
6141;SDS011;71289;51.552;6.210;2024-01-30T06:45:38;9.50;;;5.67;;
6141;SDS011;71289;51.552;6.210;2024-01-30T06:48:03;11.93;;;7.00;;
6141;SDS011;71289;51.552;6.210;2024-01-30T06:50:29;10.53;;;6.70;;
6141;SDS011;71289;51.552;6.210;2024-01-30T06:52:54;9.97;;;5.60;;
6141;SDS011;71289;51.552;6.210;2024-01-30T06:55:20;10.67;;;6.40;;
6141;SDS011;71289;51.552;6.210;2024-01-30T06:57:45;28.63;;;7.50;;
6141;SDS011;71289;51.552;6.210;2024-01-30T07:00:11;10.50;;;7.67;;
6141;SDS011;71289;51.552;6.210;2024-01-30T07:02:38;11.50;;;7.53;;
6141;SDS011;71289;51.552;6.210;2024-01-30T07:05:04;15.20;;;7.30;;
6141;SDS011;71289;51.552;6.210;2024-01-30T07:07:29;13.27;;;8.73;;
6141;SDS011;71289;51.552;6.210;2024-01-30T07:09:55;10.90;;;7.47;;
6141;SDS011;71289;51.552;6.210;2024-01-30T07:12:21;12.97;;;7.60;;
6141;SDS011;71289;51.552;6.210;2024-01-30T07:14:48;12.30;;;6.90;;
6141;SDS011;71289;51.552;6.210;2024-01-30T07:17:13;26.63;;;10.50;;
6141;SDS011;71289;51.552;6.210;2024-01-30T07:19:39;8.17;;;6.67;;
6141;SDS011;71289;51.552;6.210;2024-01-30T07:22:04;13.40;;;7.73;;
6141;SDS011;71289;51.552;6.210;2024-01-30T07:24:30;16.30;;;6.43;;
6141;SDS011;71289;51.552;6.210;2024-01-30T07:26:55;11.53;;;7.47;;
6141;SDS011;71289;51.552;6.210;2024-01-30T07:29:21;13.53;;;7.57;;
6141;SDS011;71289;51.552;6.210;2024-01-30T07:31:47;11.07;;;7.10;;
6141;SDS011;71289;51.552;6.210;2024-01-30T07:34:12;10.97;;;7.47;;
6141;SDS011;71289;51.552;6.210;2024-01-30T07:36:38;13.00;;;7.10;;
6141;SDS011;71289;51.552;6.210;2024-01-30T07:39:03;8.30;;;6.53;;
6141;SDS011;71289;51.552;6.210;2024-01-30T07:41:29;16.07;;;7.27;;
6141;SDS011;71289;51.552;6.210;2024-01-30T07:43:54;10.83;;;5.60;;
6141;SDS011;71289;51.552;6.210;2024-01-30T07:46:20;10.87;;;7.50;;
6141;SDS011;71289;51.552;6.210;2024-01-30T07:48:45;12.33;;;6.47;;
6141;SDS011;71289;51.552;6.210;2024-01-30T07:51:11;9.00;;;6.40;;
6141;SDS011;71289;51.552;6.210;2024-01-30T07:53:36;12.53;;;6.17;;
6141;SDS011;71289;51.552;6.210;2024-01-30T07:56:02;8.70;;;6.00;;
6141;SDS011;71289;51.552;6.210;2024-01-30T07:58:28;6.03;;;5.23;;
6141;SDS011;71289;51.552;6.210;2024-01-30T08:00:53;14.70;;;5.90;;
6141;SDS011;71289;51.552;6.210;2024-01-30T08:03:19;8.10;;;6.07;;
6141;SDS011;71289;51.552;6.210;2024-01-30T08:05:44;8.20;;;6.37;;
6141;SDS011;71289;51.552;6.210;2024-01-30T08:08:10;11.93;;;7.73;;
6141;SDS011;71289;51.552;6.210;2024-01-30T08:10:35;10.33;;;6.70;;
6141;SDS011;71289;51.552;6.210;2024-01-30T08:13:01;10.43;;;6.20;;
6141;SDS011;71289;51.552;6.210;2024-01-30T08:15:27;9.50;;;6.20;;
6141;SDS011;71289;51.552;6.210;2024-01-30T08:17:52;8.43;;;6.20;;
6141;SDS011;71289;51.552;6.210;2024-01-30T08:20:22;13.20;;;5.33;;
6141;SDS011;71289;51.552;6.210;2024-01-30T08:22:48;9.60;;;5.67;;
6141;SDS011;71289;51.552;6.210;2024-01-30T08:25:14;10.60;;;7.20;;
6141;SDS011;71289;51.552;6.210;2024-01-30T08:27:40;11.30;;;6.20;;
6141;SDS011;71289;51.552;6.210;2024-01-30T08:30:08;9.20;;;6.33;;
6141;SDS011;71289;51.552;6.210;2024-01-30T08:32:34;7.83;;;5.90;;
6141;SDS011;71289;51.552;6.210;2024-01-30T08:35:00;11.13;;;6.67;;
6141;SDS011;71289;51.552;6.210;2024-01-30T08:37:28;11.83;;;6.67;;
6141;SDS011;71289;51.552;6.210;2024-01-30T08:39:54;11.57;;;5.87;;
6141;SDS011;71289;51.552;6.210;2024-01-30T08:42:20;16.60;;;7.30;;
6141;SDS011;71289;51.552;6.210;2024-01-30T08:44:47;9.03;;;6.60;;
6141;SDS011;71289;51.552;6.210;2024-01-30T08:47:17;7.33;;;6.07;;
6141;SDS011;71289;51.552;6.210;2024-01-30T08:49:43;19.90;;;7.47;;
6141;SDS011;71289;51.552;6.210;2024-01-30T08:52:09;12.07;;;6.20;;
6141;SDS011;71289;51.552;6.210;2024-01-30T08:54:38;7.60;;;5.13;;
6141;SDS011;71289;51.552;6.210;2024-01-30T08:57:04;10.03;;;6.83;;
6141;SDS011;71289;51.552;6.210;2024-01-30T08:59:29;9.83;;;6.23;;
6141;SDS011;71289;51.552;6.210;2024-01-30T09:01:55;10.30;;;6.23;;
6141;SDS011;71289;51.552;6.210;2024-01-30T09:04:22;13.43;;;6.70;;
6141;SDS011;71289;51.552;6.210;2024-01-30T09:06:48;10.07;;;6.67;;
6141;SDS011;71289;51.552;6.210;2024-01-30T09:09:14;16.03;;;7.23;;
6141;SDS011;71289;51.552;6.210;2024-01-30T09:11:39;7.17;;;5.63;;
6141;SDS011;71289;51.552;6.210;2024-01-30T09:14:05;14.43;;;7.57;;
6141;SDS011;71289;51.552;6.210;2024-01-30T09:16:31;7.07;;;4.87;;
6141;SDS011;71289;51.552;6.210;2024-01-30T09:18:56;10.53;;;6.00;;
6141;SDS011;71289;51.552;6.210;2024-01-30T09:21:22;10.90;;;5.90;;
6141;SDS011;71289;51.552;6.210;2024-01-30T09:23:48;11.97;;;6.33;;
6141;SDS011;71289;51.552;6.210;2024-01-30T09:26:13;10.40;;;5.00;;
6141;SDS011;71289;51.552;6.210;2024-01-30T09:28:39;6.40;;;4.90;;
6141;SDS011;71289;51.552;6.210;2024-01-30T09:31:09;13.20;;;6.20;;
6141;SDS011;71289;51.552;6.210;2024-01-30T09:33:35;8.37;;;4.90;;
6141;SDS011;71289;51.552;6.210;2024-01-30T09:36:01;8.90;;;5.43;;
6141;SDS011;71289;51.552;6.210;2024-01-30T09:38:26;6.10;;;4.60;;
6141;SDS011;71289;51.552;6.210;2024-01-30T09:40:53;12.87;;;5.77;;
6141;SDS011;71289;51.552;6.210;2024-01-30T09:43:22;7.07;;;5.37;;
6141;SDS011;71289;51.552;6.210;2024-01-30T09:45:50;5.13;;;3.97;;
6141;SDS011;71289;51.552;6.210;2024-01-30T09:48:16;10.97;;;5.50;;
6141;SDS011;71289;51.552;6.210;2024-01-30T09:50:41;6.30;;;4.97;;
6141;SDS011;71289;51.552;6.210;2024-01-30T09:53:09;7.63;;;4.57;;
6141;SDS011;71289;51.552;6.210;2024-01-30T09:55:38;12.40;;;5.23;;
6141;SDS011;71289;51.552;6.210;2024-01-30T09:58:07;6.87;;;5.30;;
6141;SDS011;71289;51.552;6.210;2024-01-30T10:00:33;8.50;;;5.93;;
6141;SDS011;71289;51.552;6.210;2024-01-30T10:02:58;9.47;;;4.80;;
6141;SDS011;71289;51.552;6.210;2024-01-30T10:05:26;11.50;;;5.83;;
6141;SDS011;71289;51.552;6.210;2024-01-30T10:07:52;7.80;;;5.90;;
6141;SDS011;71289;51.552;6.210;2024-01-30T10:10:21;11.13;;;5.93;;
6141;SDS011;71289;51.552;6.210;2024-01-30T10:12:47;7.27;;;4.90;;
6141;SDS011;71289;51.552;6.210;2024-01-30T10:15:13;8.10;;;5.60;;
6141;SDS011;71289;51.552;6.210;2024-01-30T10:17:39;8.17;;;5.10;;
6141;SDS011;71289;51.552;6.210;2024-01-30T10:20:05;7.20;;;5.53;;
6141;SDS011;71289;51.552;6.210;2024-01-30T10:22:31;5.80;;;4.27;;
6141;SDS011;71289;51.552;6.210;2024-01-30T10:24:57;9.10;;;4.80;;
6141;SDS011;71289;51.552;6.210;2024-01-30T10:27:24;9.33;;;4.10;;
6141;SDS011;71289;51.552;6.210;2024-01-30T10:29:51;5.77;;;5.00;;
6141;SDS011;71289;51.552;6.210;2024-01-30T10:32:17;10.77;;;5.43;;
6141;SDS011;71289;51.552;6.210;2024-01-30T10:34:43;10.90;;;5.27;;
6141;SDS011;71289;51.552;6.210;2024-01-30T10:37:09;5.40;;;4.90;;
6141;SDS011;71289;51.552;6.210;2024-01-30T10:39:38;10.93;;;6.43;;
6141;SDS011;71289;51.552;6.210;2024-01-30T10:42:04;10.33;;;5.90;;
6141;SDS011;71289;51.552;6.210;2024-01-30T10:44:34;6.20;;;4.53;;
6141;SDS011;71289;51.552;6.210;2024-01-30T10:47:06;7.27;;;4.60;;
6141;SDS011;71289;51.552;6.210;2024-01-30T10:49:36;6.40;;;5.03;;
6141;SDS011;71289;51.552;6.210;2024-01-30T10:52:03;10.17;;;5.13;;
6141;SDS011;71289;51.552;6.210;2024-01-30T10:54:30;11.27;;;6.43;;
6141;SDS011;71289;51.552;6.210;2024-01-30T10:56:56;7.23;;;5.47;;
6141;SDS011;71289;51.552;6.210;2024-01-30T10:59:24;6.10;;;4.67;;
6141;SDS011;71289;51.552;6.210;2024-01-30T11:01:50;7.40;;;5.50;;
6141;SDS011;71289;51.552;6.210;2024-01-30T11:04:16;5.80;;;5.20;;
6141;SDS011;71289;51.552;6.210;2024-01-30T11:06:42;9.20;;;5.77;;
6141;SDS011;71289;51.552;6.210;2024-01-30T11:09:10;10.83;;;5.77;;
6141;SDS011;71289;51.552;6.210;2024-01-30T11:14:37;7.17;;;4.90;;
6141;SDS011;71289;51.552;6.210;2024-01-30T11:17:05;8.77;;;5.73;;
6141;SDS011;71289;51.552;6.210;2024-01-30T11:19:31;9.13;;;5.10;;
6141;SDS011;71289;51.552;6.210;2024-01-30T11:21:58;7.47;;;5.50;;
6141;SDS011;71289;51.552;6.210;2024-01-30T11:24:24;7.20;;;5.10;;
6141;SDS011;71289;51.552;6.210;2024-01-30T11:26:55;10.47;;;4.90;;
6141;SDS011;71289;51.552;6.210;2024-01-30T11:29:27;6.17;;;5.40;;
6141;SDS011;71289;51.552;6.210;2024-01-30T11:31:53;16.03;;;6.33;;
6141;SDS011;71289;51.552;6.210;2024-01-30T11:34:20;8.70;;;5.23;;
6141;SDS011;71289;51.552;6.210;2024-01-30T11:36:53;12.77;;;5.27;;
6141;SDS011;71289;51.552;6.210;2024-01-30T11:39:24;10.33;;;5.33;;
6141;SDS011;71289;51.552;6.210;2024-01-30T11:41:54;6.23;;;4.60;;
6141;SDS011;71289;51.552;6.210;2024-01-30T11:44:20;8.83;;;5.83;;
6141;SDS011;71289;51.552;6.210;2024-01-30T11:46:49;7.40;;;4.87;;
6141;SDS011;71289;51.552;6.210;2024-01-30T11:49:15;21.30;;;5.87;;
6141;SDS011;71289;51.552;6.210;2024-01-30T11:51:42;7.00;;;4.77;;
6141;SDS011;71289;51.552;6.210;2024-01-30T11:54:08;12.90;;;6.60;;
6141;SDS011;71289;51.552;6.210;2024-01-30T11:56:33;6.57;;;5.30;;
6141;SDS011;71289;51.552;6.210;2024-01-30T11:58:59;12.70;;;7.07;;
6141;SDS011;71289;51.552;6.210;2024-01-30T12:01:26;6.93;;;4.87;;
6141;SDS011;71289;51.552;6.210;2024-01-30T12:03:52;9.03;;;5.43;;
6141;SDS011;71289;51.552;6.210;2024-01-30T12:06:17;11.93;;;6.20;;
6141;SDS011;71289;51.552;6.210;2024-01-30T12:08:54;8.70;;;5.47;;
6141;SDS011;71289;51.552;6.210;2024-01-30T12:11:29;9.90;;;4.97;;
6141;SDS011;71289;51.552;6.210;2024-01-30T12:13:55;18.33;;;6.00;;
6141;SDS011;71289;51.552;6.210;2024-01-30T12:16:21;6.70;;;5.10;;
6141;SDS011;71289;51.552;6.210;2024-01-30T12:18:47;14.03;;;6.97;;
6141;SDS011;71289;51.552;6.210;2024-01-30T12:21:15;5.23;;;4.40;;
6141;SDS011;71289;51.552;6.210;2024-01-30T12:23:41;6.70;;;4.67;;
6141;SDS011;71289;51.552;6.210;2024-01-30T12:26:07;10.50;;;5.30;;
6141;SDS011;71289;51.552;6.210;2024-01-30T12:28:33;8.60;;;4.40;;
6141;SDS011;71289;51.552;6.210;2024-01-30T12:31:05;10.03;;;5.83;;
6141;SDS011;71289;51.552;6.210;2024-01-30T12:33:30;5.33;;;4.77;;
6141;SDS011;71289;51.552;6.210;2024-01-30T12:35:56;14.37;;;5.90;;
6141;SDS011;71289;51.552;6.210;2024-01-30T12:38:23;9.20;;;5.30;;
6141;SDS011;71289;51.552;6.210;2024-01-30T12:40:49;12.70;;;5.47;;
6141;SDS011;71289;51.552;6.210;2024-01-30T12:43:19;6.80;;;5.10;;
6141;SDS011;71289;51.552;6.210;2024-01-30T12:45:44;8.17;;;4.97;;
6141;SDS011;71289;51.552;6.210;2024-01-30T12:48:10;12.93;;;5.67;;
6141;SDS011;71289;51.552;6.210;2024-01-30T12:50:35;9.20;;;5.33;;
6141;SDS011;71289;51.552;6.210;2024-01-30T12:53:01;8.63;;;5.60;;
6141;SDS011;71289;51.552;6.210;2024-01-30T12:55:26;7.33;;;5.67;;
6141;SDS011;71289;51.552;6.210;2024-01-30T12:57:53;12.23;;;6.60;;
6141;SDS011;71289;51.552;6.210;2024-01-30T13:00:20;9.27;;;6.13;;
6141;SDS011;71289;51.552;6.210;2024-01-30T13:02:47;7.00;;;5.30;;
6141;SDS011;71289;51.552;6.210;2024-01-30T13:05:12;10.73;;;4.63;;
6141;SDS011;71289;51.552;6.210;2024-01-30T13:07:38;6.00;;;4.70;;
6141;SDS011;71289;51.552;6.210;2024-01-30T13:10:03;5.80;;;4.83;;
6141;SDS011;71289;51.552;6.210;2024-01-30T13:12:29;13.20;;;5.03;;
6141;SDS011;71289;51.552;6.210;2024-01-30T13:14:57;7.90;;;5.53;;
6141;SDS011;71289;51.552;6.210;2024-01-30T13:17:23;5.40;;;4.53;;
6141;SDS011;71289;51.552;6.210;2024-01-30T13:19:49;7.30;;;4.87;;
6141;SDS011;71289;51.552;6.210;2024-01-30T13:22:15;14.23;;;5.10;;
6141;SDS011;71289;51.552;6.210;2024-01-30T13:24:40;8.57;;;5.43;;
6141;SDS011;71289;51.552;6.210;2024-01-30T13:27:06;10.80;;;5.57;;
6141;SDS011;71289;51.552;6.210;2024-01-30T13:29:32;10.87;;;7.00;;
6141;SDS011;71289;51.552;6.210;2024-01-30T13:31:58;5.33;;;3.60;;
6141;SDS011;71289;51.552;6.210;2024-01-30T13:34:23;9.80;;;4.20;;
6141;SDS011;71289;51.552;6.210;2024-01-30T13:36:49;4.97;;;3.27;;
6141;SDS011;71289;51.552;6.210;2024-01-30T13:39:15;8.37;;;4.10;;
6141;SDS011;71289;51.552;6.210;2024-01-30T13:41:43;4.70;;;3.07;;
6141;SDS011;71289;51.552;6.210;2024-01-30T13:44:09;4.40;;;3.10;;
6141;SDS011;71289;51.552;6.210;2024-01-30T13:46:34;9.83;;;4.27;;
6141;SDS011;71289;51.552;6.210;2024-01-30T13:49:01;3.63;;;3.10;;
6141;SDS011;71289;51.552;6.210;2024-01-30T13:51:26;8.57;;;3.90;;
6141;SDS011;71289;51.552;6.210;2024-01-30T13:53:52;7.80;;;3.33;;
6141;SDS011;71289;51.552;6.210;2024-01-30T13:56:19;5.20;;;2.93;;
6141;SDS011;71289;51.552;6.210;2024-01-30T13:58:45;4.10;;;2.97;;
6141;SDS011;71289;51.552;6.210;2024-01-30T14:01:12;3.80;;;2.10;;
6141;SDS011;71289;51.552;6.210;2024-01-30T14:03:38;2.93;;;1.50;;
6141;SDS011;71289;51.552;6.210;2024-01-30T14:06:03;1.10;;;0.90;;
6141;SDS011;71289;51.552;6.210;2024-01-30T14:08:29;5.47;;;1.17;;
6141;SDS011;71289;51.552;6.210;2024-01-30T14:10:55;2.70;;;1.10;;
6141;SDS011;71289;51.552;6.210;2024-01-30T14:13:21;1.80;;;1.27;;
6141;SDS011;71289;51.552;6.210;2024-01-30T14:15:47;2.00;;;1.30;;
6141;SDS011;71289;51.552;6.210;2024-01-30T14:18:14;2.40;;;1.10;;
6141;SDS011;71289;51.552;6.210;2024-01-30T14:20:40;1.20;;;0.60;;
6141;SDS011;71289;51.552;6.210;2024-01-30T14:23:05;6.57;;;1.77;;
6141;SDS011;71289;51.552;6.210;2024-01-30T14:25:31;2.70;;;1.20;;
6141;SDS011;71289;51.552;6.210;2024-01-30T14:27:57;1.47;;;0.80;;
6141;SDS011;71289;51.552;6.210;2024-01-30T14:30:23;1.90;;;0.70;;
6141;SDS011;71289;51.552;6.210;2024-01-30T14:32:49;2.10;;;0.87;;
6141;SDS011;71289;51.552;6.210;2024-01-30T14:35:15;0.60;;;0.60;;
6141;SDS011;71289;51.552;6.210;2024-01-30T14:37:41;5.83;;;1.03;;
6141;SDS011;71289;51.552;6.210;2024-01-30T14:40:07;0.80;;;0.70;;
6141;SDS011;71289;51.552;6.210;2024-01-30T14:42:32;0.87;;;0.50;;
6141;SDS011;71289;51.552;6.210;2024-01-30T14:44:58;0.57;;;0.40;;
6141;SDS011;71289;51.552;6.210;2024-01-30T14:47:24;0.63;;;0.43;;
6141;SDS011;71289;51.552;6.210;2024-01-30T14:49:50;1.43;;;0.70;;